Nearby METAR Reports

 

NZCH - Christchurch Int, New Zealand
Distance from station: W 10km
Updated: 04 Apr 2020 06:30
Overcast
Overcast
 Wind from NNE
Wind: NNE 17 km/h
Temperature: 12°C
Dew Point: 10°C
Humidity: 88%
Barometer: 1024 hPa
Clouds: Overcast
Visibility: 10 km
Cloud details: Overcast 396 m
2020/04/03 17:30 NZCH 031730Z AUTO 03009KT 9999 OVC013/// 12/10 Q1024 NOSIG